createdAt,value
2022-08-09T00:01:24.318Z,18.70
2022-08-09T00:06:18.782Z,18.60
2022-08-09T00:10:58.167Z,18.60
2022-08-09T00:15:58.179Z,18.60
2022-08-09T00:20:27.740Z,18.50
2022-08-09T00:25:10.012Z,18.50
2022-08-09T00:30:16.809Z,18.40
2022-08-09T00:34:38.794Z,18.40
2022-08-09T00:40:08.937Z,18.30
2022-08-09T00:44:24.613Z,18.30
2022-08-09T00:49:00.601Z,18.20
2022-08-09T00:53:36.223Z,18.20
2022-08-09T00:58:14.640Z,18.20
2022-08-09T01:02:51.306Z,18.10
2022-08-09T01:07:37.553Z,18.10
2022-08-09T01:12:36.171Z,18.10
2022-08-09T01:17:17.867Z,18.00
2022-08-09T01:22:02.041Z,18.00
2022-08-09T01:26:54.181Z,17.90
2022-08-09T01:32:38.590Z,17.90
2022-08-09T01:36:27.438Z,17.80
2022-08-09T01:41:07.291Z,17.70
2022-08-09T01:45:45.993Z,17.70
2022-08-09T01:50:36.506Z,17.60
2022-08-09T01:55:12.267Z,17.50
2022-08-09T01:59:51.510Z,17.40
2022-08-09T02:04:29.548Z,17.40
2022-08-09T02:09:03.895Z,17.40
2022-08-09T02:13:40.608Z,17.30
2022-08-09T02:18:16.480Z,17.20
2022-08-09T02:22:54.550Z,17.10
2022-08-09T02:27:57.523Z,17.10
2022-08-09T02:32:29.684Z,17.00
2022-08-09T02:37:06.847Z,16.90
2022-08-09T02:41:45.176Z,16.80
2022-08-09T02:46:19.965Z,16.80
2022-08-09T02:50:58.164Z,16.70
2022-08-09T02:55:53.656Z,16.70
2022-08-09T03:00:31.042Z,16.70
2022-08-09T03:05:06.355Z,16.60
2022-08-09T03:09:42.776Z,16.60
2022-08-09T03:14:19.038Z,16.50
2022-08-09T03:18:57.734Z,16.40
2022-08-09T03:23:35.744Z,16.40
2022-08-09T03:28:11.280Z,16.20
2022-08-09T03:32:46.541Z,16.30
2022-08-09T03:37:54.451Z,16.20
2022-08-09T03:42:19.300Z,16.10
2022-08-09T03:47:00.402Z,16.10
2022-08-09T03:51:54.082Z,16.00
2022-08-09T03:56:31.966Z,16.10
2022-08-09T04:01:07.374Z,16.10
2022-08-09T04:05:41.674Z,16.20
2022-08-09T04:10:28.366Z,16.40
2022-08-09T04:15:11.372Z,16.80
2022-08-09T04:19:55.970Z,17.30
2022-08-09T04:24:31.863Z,18.00
2022-08-09T04:29:12.201Z,18.70
2022-08-09T04:33:56.627Z,19.50
2022-08-09T04:38:31.224Z,20.40
2022-08-09T04:43:06.261Z,21.30
2022-08-09T04:47:58.493Z,22.20
2022-08-09T04:52:35.120Z,22.70
2022-08-09T04:57:12.243Z,23.10
2022-08-09T05:01:46.316Z,23.80
2022-08-09T05:06:26.867Z,24.40
2022-08-09T05:11:03.259Z,25.00
2022-08-09T05:15:42.985Z,25.60
2022-08-09T05:20:29.840Z,26.30
2022-08-09T05:25:05.538Z,26.50
2022-08-09T05:29:41.813Z,26.70
2022-08-09T05:34:17.424Z,27.30
2022-08-09T05:38:51.707Z,28.00
2022-08-09T05:43:29.107Z,28.40
2022-08-09T05:48:07.966Z,28.60
2022-08-09T05:52:44.507Z,27.70
2022-08-09T05:57:51.373Z,26.50
2022-08-09T06:02:22.323Z,26.20
2022-08-09T06:06:58.062Z,26.70
2022-08-09T06:11:41.103Z,27.10
2022-08-09T06:16:26.303Z,26.80
2022-08-09T06:21:00.358Z,26.30
2022-08-09T06:25:35.868Z,25.90
2022-08-09T06:30:14.228Z,25.50
2022-08-09T06:34:53.164Z,25.70
2022-08-09T06:39:38.701Z,26.30
2022-08-09T06:44:22.793Z,26.70
2022-08-09T06:49:00.221Z,28.20
2022-08-09T06:53:38.462Z,30.50
2022-08-09T07:00:52.289Z,32.50
2022-08-09T07:03:08.211Z,34.20
2022-08-09T07:08:00.932Z,35.60
2022-08-09T07:12:38.014Z,36.50
2022-08-09T07:17:15.107Z,37.30
2022-08-09T07:21:57.713Z,37.90
2022-08-09T07:26:33.968Z,38.50
2022-08-09T07:31:08.031Z,38.80
2022-08-09T07:35:54.306Z,38.40
2022-08-09T07:40:46.415Z,38.40
2022-08-09T07:45:39.178Z,38.90
2022-08-09T07:50:14.551Z,39.50
2022-08-09T07:54:51.640Z,39.90
2022-08-09T07:59:45.873Z,39.70
2022-08-09T08:04:31.870Z,40.00
2022-08-09T08:09:07.754Z,40.00
2022-08-09T08:14:00.617Z,39.20
2022-08-09T08:18:36.187Z,38.90
2022-08-09T08:23:16.927Z,39.40
2022-08-09T08:27:51.768Z,40.30
2022-08-09T08:32:29.352Z,41.00
2022-08-09T08:37:05.522Z,41.40
2022-08-09T08:41:51.148Z,41.60
2022-08-09T08:46:41.557Z,41.60
2022-08-09T08:51:26.910Z,42.00
2022-08-09T08:56:28.147Z,42.20
2022-08-09T09:01:09.051Z,42.20
2022-08-09T09:05:59.636Z,42.30
2022-08-09T09:10:39.844Z,42.00
2022-08-09T09:15:28.371Z,41.90
2022-08-09T09:20:03.036Z,42.10
2022-08-09T09:24:39.856Z,42.50
2022-08-09T09:29:40.999Z,42.90
2022-08-09T09:34:29.022Z,43.40
2022-08-09T09:39:08.880Z,43.50
2022-08-09T09:44:10.802Z,43.80
2022-08-09T09:48:41.035Z,43.70
2022-08-09T09:53:25.111Z,43.40
2022-08-09T09:58:19.670Z,42.90
2022-08-09T10:02:54.188Z,42.40
2022-08-09T10:07:30.176Z,42.60
2022-08-09T10:12:14.124Z,43.00
2022-08-09T10:17:23.992Z,43.30
2022-08-09T10:22:05.525Z,43.50
2022-08-09T10:26:40.936Z,43.10
2022-08-09T10:36:12.399Z,41.80
2022-08-09T10:40:50.243Z,41.70
2022-08-09T10:45:25.284Z,42.00
2022-08-09T10:50:26.945Z,42.50
2022-08-09T10:55:21.408Z,43.10
2022-08-09T10:59:58.316Z,43.10
2022-08-09T11:04:37.388Z,42.00
2022-08-09T11:09:52.846Z,41.40
2022-08-09T11:14:32.239Z,41.70
2022-08-09T11:19:10.427Z,42.20
2022-08-09T11:24:00.771Z,42.90
2022-08-09T11:28:54.208Z,43.50
2022-08-09T11:33:46.729Z,43.60
2022-08-09T11:38:32.592Z,42.10
2022-08-09T11:43:08.159Z,40.00
2022-08-09T11:47:47.605Z,37.90
2022-08-09T11:53:03.553Z,36.30
2022-08-09T11:57:47.933Z,36.10
2022-08-09T12:02:51.128Z,36.60
2022-08-09T12:07:41.531Z,36.20
2022-08-09T12:12:28.856Z,35.50
2022-08-09T12:17:27.711Z,34.80
2022-08-09T12:22:02.846Z,33.80
2022-08-09T12:26:44.713Z,33.10
2022-08-09T12:32:01.965Z,32.80
2022-08-09T12:36:34.125Z,32.70
2022-08-09T12:41:10.470Z,32.50
2022-08-09T12:46:00.144Z,32.40
2022-08-09T12:50:37.316Z,32.30
2022-08-09T12:56:14.165Z,32.00
2022-08-09T13:00:18.696Z,31.60
2022-08-09T13:05:02.945Z,31.20
2022-08-09T13:09:38.379Z,31.20
2022-08-09T13:14:39.701Z,31.40
2022-08-09T13:19:11.476Z,31.50
2022-08-09T13:24:44.903Z,31.40
2022-08-09T13:28:42.340Z,31.30
2022-08-09T13:33:24.472Z,31.20
2022-08-09T13:38:00.169Z,31.20
2022-08-09T13:42:37.910Z,31.30
2022-08-09T13:47:27.326Z,31.30
2022-08-09T13:52:09.399Z,31.30
2022-08-09T13:56:47.038Z,31.40
2022-08-09T14:01:56.081Z,31.40
2022-08-09T14:06:26.571Z,31.30
2022-08-09T14:11:03.784Z,31.10
2022-08-09T14:16:09.711Z,30.80
2022-08-09T14:20:45.508Z,30.40
2022-08-09T14:25:22.983Z,30.20
2022-08-09T14:30:35.742Z,30.00
2022-08-09T14:34:55.518Z,30.00
2022-08-09T14:39:45.395Z,29.90
2022-08-09T14:44:32.343Z,29.90
2022-08-09T14:49:06.852Z,29.90
2022-08-09T14:53:48.661Z,29.80
2022-08-09T14:58:28.171Z,29.60
2022-08-09T15:03:03.938Z,29.50
2022-08-09T15:07:38.085Z,29.40
2022-08-09T15:12:17.837Z,29.30
2022-08-09T15:16:55.577Z,29.30
2022-08-09T15:21:56.426Z,29.20
2022-08-09T15:26:31.239Z,29.10
2022-08-09T15:31:10.306Z,28.90
2022-08-09T15:36:01.476Z,28.70
2022-08-09T15:40:36.400Z,28.60
2022-08-09T15:45:12.439Z,28.50
2022-08-09T15:50:03.842Z,28.40
2022-08-09T15:54:44.561Z,28.40
2022-08-09T15:59:20.568Z,28.40
2022-08-09T16:03:54.665Z,28.40
2022-08-09T16:08:32.411Z,28.20
2022-08-09T16:13:18.997Z,28.20
2022-08-09T16:18:04.779Z,28.20
2022-08-09T16:22:42.296Z,28.10
2022-08-09T16:27:16.874Z,28.10
2022-08-09T16:32:17.779Z,28.00
2022-08-09T16:36:46.584Z,28.00
2022-08-09T16:41:39.321Z,28.00
2022-08-09T16:46:18.428Z,28.00
2022-08-09T16:50:59.290Z,28.00
2022-08-09T16:55:58.715Z,28.00
2022-08-09T17:00:27.655Z,27.90
2022-08-09T17:05:04.784Z,27.80
2022-08-09T17:09:43.985Z,27.70
2022-08-09T17:14:27.683Z,27.60
2022-08-09T17:19:03.102Z,27.40
2022-08-09T17:24:21.121Z,27.30
2022-08-09T17:28:34.992Z,27.20
2022-08-09T17:33:22.571Z,27.10
2022-08-09T17:38:02.098Z,27.00
2022-08-09T17:42:48.780Z,27.00
2022-08-09T17:47:31.252Z,26.90
2022-08-09T17:52:23.628Z,26.80
2022-08-09T17:56:58.771Z,26.70
2022-08-09T18:02:03.718Z,26.60
2022-08-09T18:06:31.800Z,26.50
2022-08-09T18:11:07.172Z,26.40
2022-08-09T18:16:05.097Z,26.30
2022-08-09T18:21:01.200Z,26.20
2022-08-09T18:25:53.556Z,26.10
2022-08-09T18:30:39.439Z,25.90
2022-08-09T18:35:20.493Z,25.80
2022-08-09T18:40:14.569Z,25.60
2022-08-09T18:44:53.922Z,25.50
2022-08-09T18:49:28.291Z,25.30
2022-08-09T18:54:16.530Z,25.20
2022-08-09T18:58:55.553Z,25.00
2022-08-09T19:03:31.345Z,24.90
2022-08-09T19:08:28.014Z,24.70
2022-08-09T19:13:22.615Z,24.60
2022-08-09T19:17:59.896Z,24.40
2022-08-09T19:22:36.511Z,24.30
2022-08-09T19:27:11.204Z,24.20
2022-08-09T19:31:51.121Z,24.10
2022-08-09T19:36:31.057Z,24.00
2022-08-09T19:41:08.474Z,23.90
2022-08-09T19:45:42.528Z,23.80
2022-08-09T19:50:49.315Z,23.60
2022-08-09T19:55:11.558Z,23.60
2022-08-09T20:00:05.741Z,23.50
2022-08-09T20:04:47.879Z,23.40
2022-08-09T20:09:44.590Z,23.30
2022-08-09T20:14:19.928Z,23.20
2022-08-09T20:19:42.021Z,23.10
2022-08-09T20:23:50.872Z,23.00
2022-08-09T20:28:31.970Z,22.90
2022-08-09T20:33:08.695Z,22.80
2022-08-09T20:38:21.230Z,22.80
2022-08-09T20:42:53.236Z,22.60
2022-08-09T20:47:47.983Z,22.50
2022-08-09T20:52:22.769Z,22.40
2022-08-09T20:56:59.141Z,22.30
2022-08-09T21:01:50.688Z,22.10
2022-08-09T21:06:27.354Z,22.00
2022-08-09T21:11:06.381Z,21.90
2022-08-09T21:15:51.840Z,21.90
2022-08-09T21:20:26.752Z,21.80
2022-08-09T21:25:21.347Z,21.70
2022-08-09T21:29:55.393Z,21.60
2022-08-09T21:34:31.468Z,21.50
2022-08-09T21:39:06.940Z,21.40
2022-08-09T21:43:56.732Z,21.30
2022-08-09T21:48:32.253Z,21.30
2022-08-09T21:53:15.810Z,21.20
2022-08-09T21:58:02.503Z,21.20
2022-08-09T22:02:37.914Z,21.10
2022-08-09T22:07:14.366Z,21.00
2022-08-09T22:12:18.966Z,21.00
2022-08-09T22:16:58.840Z,21.00
2022-08-09T22:21:50.089Z,21.00
2022-08-09T22:26:35.323Z,21.00
2022-08-09T22:31:13.575Z,20.90
2022-08-09T22:36:02.323Z,20.90
2022-08-09T22:40:38.009Z,20.80
2022-08-09T22:48:14.399Z,20.80
2022-08-09T22:50:09.761Z,20.70
2022-08-09T22:54:47.539Z,20.70
2022-08-09T22:59:55.353Z,20.60
2022-08-09T23:04:16.383Z,20.50
2022-08-09T23:08:52.749Z,20.40
2022-08-09T23:13:26.754Z,20.40
2022-08-09T23:18:00.706Z,20.30
2022-08-09T23:22:34.719Z,20.30
2022-08-09T23:27:11.409Z,20.20
2022-08-09T23:31:45.405Z,20.10
2022-08-09T23:36:19.403Z,20.10
2022-08-09T23:40:54.186Z,20.00
2022-08-09T23:45:36.634Z,19.90
2022-08-09T23:50:12.481Z,19.90
2022-08-09T23:54:46.596Z,19.80
2022-08-09T23:59:21.097Z,19.70
